Aviation Digital Data Service (ADDS)

Output produced by METARs form (1233 UTC 18 August 2017)
found at http://aviationweather.gov/adds/metars/
 
KILM 181120Z 1812/1912 24005KT P6SM BKN050 
     FM181800 21009KT P6SM VCTS BKN035CB 
     FM182300 21009KT P6SM SCT250 
     FM190300 22008KT P6SM SCT040 
     FM190700 23007KT P6SM BKN050